Time;durP1;ratioP1;P1;durP2;ratioP2;P2;SDS_P1;SDS_P2;PMS_P1;PMS_P2;Temp;Humidity;BMP_temperature;BMP_pressure;BME280_temperature;BME280_humidity;BME280_pressure;Samples;Min_cycle;Max_cycle;Signal;HPM_P1;HPM_P2
2021/05/20 00:00:28;;;;;;;4.88;1.88;;;;;;;;;;5013611;28;20120;-43
2021/05/20 00:02:53;;;;;;;9.95;2.58;;;;;;;;;;5019904;28;20610;-42
2021/05/20 00:05:19;;;;;;;2.95;0.85;;;;;;;;;;5012563;28;20034;-46
2021/05/20 00:07:45;;;;;;;6.15;1.70;;;;;;;;;;5017738;28;20083;-43
2021/05/20 00:10:11;;;;;;;2.83;1.30;;;;;;;;;;5017176;28;20036;-44
2021/05/20 00:12:36;;;;;;;5.68;1.98;;;;;;;;;;5017757;28;20034;-43
2021/05/20 00:15:03;;;;;;;5.25;2.42;;;;;;;;;;5014844;28;20052;-41
2021/05/20 00:17:28;;;;;;;2.28;1.13;;;;;;;;;;5016997;28;20037;-40
2021/05/20 00:19:53;;;;;;;5.07;1.65;;;;;;;;;;5018936;28;20044;-44
2021/05/20 00:22:20;;;;;;;16.73;2.47;;;;;;;;;;5019030;28;20037;-41
2021/05/20 00:24:45;;;;;;;8.13;2.70;;;;;;;;;;5013354;28;20050;-43
2021/05/20 00:27:10;;;;;;;6.72;1.70;;;;;;;;;;5016699;28;20571;-41
2021/05/20 00:29:36;;;;;;;8.27;3.00;;;;;;;;;;5017336;28;20068;-42
2021/05/20 00:32:01;;;;;;;1.65;1.20;;;;;;;;;;5016095;28;20076;-41
2021/05/20 00:34:26;;;;;;;9.55;2.83;;;;;;;;;;5014879;28;20037;-44
2021/05/20 00:36:52;;;;;;;5.65;1.48;;;;;;;;;;5011957;28;20049;-41
2021/05/20 00:39:17;;;;;;;5.97;1.67;;;;;;;;;;5015837;28;20065;-41
2021/05/20 00:41:42;;;;;;;7.88;2.65;;;;;;;;;;5020097;28;20056;-41
2021/05/20 00:44:08;;;;;;;6.32;2.50;;;;;;;;;;5014692;28;20403;-44
2021/05/20 00:46:33;;;;;;;5.88;1.98;;;;;;;;;;5014124;28;20057;-41
2021/05/20 00:48:58;;;;;;;12.32;2.72;;;;;;;;;;5018370;28;20048;-41
2021/05/20 00:51:24;;;;;;;7.40;2.75;;;;;;;;;;5016453;28;20403;-41
2021/05/20 00:53:49;;;;;;;8.65;2.42;;;;;;;;;;5014558;28;20091;-43
2021/05/20 00:56:17;;;;;;;7.57;3.17;;;;;;;;;;5016212;28;20120;-42
2021/05/20 00:58:43;;;;;;;4.07;2.47;;;;;;;;;;5017169;28;20065;-42
2021/05/20 01:01:09;;;;;;;1.80;0.95;;;;;;;;;;5014226;28;20586;-40
2021/05/20 01:03:34;;;;;;;11.43;2.45;;;;;;;;;;5015693;28;20034;-41
2021/05/20 01:06:00;;;;;;;6.25;2.40;;;;;;;;;;5014822;28;20044;-41
2021/05/20 01:08:25;;;;;;;6.65;2.40;;;;;;;;;;5031865;28;20050;-41
2021/05/20 01:10:51;;;;;;;11.52;1.75;;;;;;;;;;5013902;28;20448;-40
2021/05/20 01:13:16;;;;;;;7.22;1.65;;;;;;;;;;5013063;28;20040;-44
2021/05/20 01:15:42;;;;;;;3.28;1.77;;;;;;;;;;5017329;28;20034;-41
2021/05/20 01:18:07;;;;;;;9.02;2.95;;;;;;;;;;5017705;28;20037;-42
2021/05/20 01:20:37;;;;;;;3.20;2.05;;;;;;;;;;5030532;28;20806;-42
2021/05/20 01:23:08;;;;;;;2.40;1.20;;;;;;;;;;5011940;28;20107;-41
2021/05/20 01:25:34;;;;;;;6.45;1.65;;;;;;;;;;5010715;28;20077;-42
2021/05/20 01:28:03;;;;;;;3.35;1.65;;;;;;;;;;5014747;28;20034;-41
2021/05/20 01:30:32;;;;;;;5.10;1.80;;;;;;;;;;5014005;28;20033;-43
2021/05/20 01:32:57;;;;;;;4.75;1.73;;;;;;;;;;5015420;28;20096;-42
2021/05/20 01:35:23;;;;;;;5.85;2.80;;;;;;;;;;5018952;28;20494;-43
2021/05/20 01:37:49;;;;;;;6.45;2.20;;;;;;;;;;5003144;28;20379;-41
2021/05/20 01:40:14;;;;;;;10.55;1.63;;;;;;;;;;5015342;28;20091;-41
2021/05/20 01:42:40;;;;;;;13.80;3.08;;;;;;;;;;5019156;28;20092;-43
2021/05/20 01:45:06;;;;;;;6.68;2.83;;;;;;;;;;5017566;28;20037;-40
2021/05/20 01:47:31;;;;;;;4.32;2.08;;;;;;;;;;5032243;28;20454;-42
2021/05/20 01:49:58;;;;;;;7.15;2.28;;;;;;;;;;5022087;28;20045;-42
2021/05/20 01:52:23;;;;;;;3.65;1.00;;;;;;;;;;5017048;28;20095;-41
2021/05/20 01:54:48;;;;;;;4.38;2.05;;;;;;;;;;5021352;28;20541;-41
2021/05/20 01:57:15;;;;;;;4.95;2.00;;;;;;;;;;5032241;28;20050;-43
2021/05/20 01:59:40;;;;;;;9.25;2.20;;;;;;;;;;5018989;28;20033;-42
2021/05/20 02:02:14;;;;;;;6.85;2.08;;;;;;;;;;5016763;28;20529;-41
2021/05/20 02:04:40;;;;;;;7.18;2.22;;;;;;;;;;5018225;28;20065;-41
2021/05/20 02:07:05;;;;;;;3.63;2.30;;;;;;;;;;5018542;28;20121;-41
2021/05/20 02:09:30;;;;;;;9.40;3.20;;;;;;;;;;5021215;28;20029;-41
2021/05/20 02:11:56;;;;;;;2.35;1.50;;;;;;;;;;5016935;28;20510;-41
2021/05/20 02:14:21;;;;;;;13.05;2.97;;;;;;;;;;5018290;28;20082;-43
2021/05/20 02:16:46;;;;;;;3.15;1.35;;;;;;;;;;5018701;28;20148;-43
2021/05/20 02:19:12;;;;;;;6.15;1.85;;;;;;;;;;5017182;28;20033;-41
2021/05/20 02:21:37;;;;;;;5.35;2.15;;;;;;;;;;5016992;28;20485;-41
2021/05/20 02:24:03;;;;;;;2.97;1.42;;;;;;;;;;5017204;28;20036;-41
2021/05/20 02:26:28;;;;;;;4.47;2.13;;;;;;;;;;5016031;28;20050;-41
2021/05/20 02:28:53;;;;;;;7.88;1.88;;;;;;;;;;5016449;28;20062;-43
2021/05/20 02:31:19;;;;;;;11.02;1.77;;;;;;;;;;5013094;28;20041;-42
2021/05/20 02:33:44;;;;;;;6.78;2.08;;;;;;;;;;5017974;28;20081;-40
2021/05/20 02:36:09;;;;;;;3.80;1.35;;;;;;;;;;5017770;28;20034;-42
2021/05/20 02:38:35;;;;;;;6.32;2.03;;;;;;;;;;5016523;28;20526;-42
2021/05/20 02:41:00;;;;;;;9.82;1.83;;;;;;;;;;5013003;28;20550;-40
2021/05/20 02:43:26;;;;;;;3.40;1.85;;;;;;;;;;5017647;28;20576;-40
2021/05/20 02:45:51;;;;;;;9.13;2.15;;;;;;;;;;5017432;28;20450;-41
2021/05/20 02:48:16;;;;;;;6.57;2.28;;;;;;;;;;5017400;28;20048;-41
2021/05/20 02:50:42;;;;;;;3.28;1.27;;;;;;;;;;5018292;28;20124;-40
2021/05/20 02:53:08;;;;;;;4.85;2.20;;;;;;;;;;5020791;28;20087;-41
2021/05/20 02:55:33;;;;;;;3.08;1.27;;;;;;;;;;5014993;28;20077;-41
2021/05/20 02:58:00;;;;;;;11.15;2.90;;;;;;;;;;5019510;28;20037;-44
2021/05/20 03:00:30;;;;;;;4.47;1.60;;;;;;;;;;5033253;28;20126;-41
2021/05/20 03:02:57;;;;;;;19.42;3.22;;;;;;;;;;5016276;28;20482;-41
2021/05/20 03:05:22;;;;;;;8.95;2.90;;;;;;;;;;5017840;28;20041;-42
2021/05/20 03:07:48;;;;;;;4.60;1.73;;;;;;;;;;5014887;28;20029;-41
2021/05/20 03:10:13;;;;;;;10.65;2.08;;;;;;;;;;5017652;28;20406;-41
2021/05/20 03:12:39;;;;;;;4.63;1.73;;;;;;;;;;5018234;28;20037;-41
2021/05/20 03:15:05;;;;;;;6.75;1.80;;;;;;;;;;5015409;28;20033;-42
2021/05/20 03:17:30;;;;;;;11.52;1.83;;;;;;;;;;5018289;28;20528;-41
2021/05/20 03:19:55;;;;;;;5.38;2.60;;;;;;;;;;5016194;28;20072;-40
2021/05/20 03:22:23;;;;;;;5.45;2.55;;;;;;;;;;5016586;28;20080;-41
2021/05/20 03:24:50;;;;;;;6.40;2.28;;;;;;;;;;4998659;28;20053;-42
2021/05/20 03:27:16;;;;;;;4.20;1.77;;;;;;;;;;5018110;28;20034;-41
2021/05/20 03:29:42;;;;;;;9.77;2.45;;;;;;;;;;5017830;28;20026;-42
2021/05/20 03:32:07;;;;;;;3.38;1.63;;;;;;;;;;5018061;28;20411;-42
2021/05/20 03:34:33;;;;;;;7.25;2.95;;;;;;;;;;5015776;28;20029;-42
2021/05/20 03:36:58;;;;;;;12.05;2.50;;;;;;;;;;5014368;28;20131;-41
2021/05/20 03:39:23;;;;;;;6.63;2.42;;;;;;;;;;5017422;28;20038;-41
2021/05/20 03:41:48;;;;;;;2.85;1.20;;;;;;;;;;5017770;28;20042;-43
2021/05/20 03:44:14;;;;;;;19.23;3.03;;;;;;;;;;5015187;28;20140;-44
2021/05/20 03:46:39;;;;;;;5.30;2.17;;;;;;;;;;5015066;28;20076;-42
2021/05/20 03:49:04;;;;;;;11.60;2.20;;;;;;;;;;5017190;28;20072;-42
2021/05/20 03:51:30;;;;;;;3.75;1.35;;;;;;;;;;5021123;28;20222;-42
2021/05/20 03:53:56;;;;;;;6.45;2.70;;;;;;;;;;5000736;28;20030;-43
2021/05/20 03:56:21;;;;;;;7.25;2.63;;;;;;;;;;5016483;28;20049;-42
2021/05/20 03:58:47;;;;;;;4.93;2.03;;;;;;;;;;5033290;28;20045;-44
2021/05/20 04:01:12;;;;;;;10.68;2.33;;;;;;;;;;5014647;28;20497;-42
2021/05/20 04:03:37;;;;;;;3.00;2.13;;;;;;;;;;5016952;28;20414;-42
2021/05/20 04:06:05;;;;;;;7.78;2.10;;;;;;;;;;5019344;28;20034;-42
2021/05/20 04:08:33;;;;;;;9.95;2.45;;;;;;;;;;5014914;28;20036;-43
2021/05/20 04:10:59;;;;;;;3.13;2.53;;;;;;;;;;5017433;28;20869;-42
2021/05/20 04:13:34;;;;;;;4.22;1.80;;;;;;;;;;5011432;28;20044;-44
2021/05/20 04:16:00;;;;;;;3.55;2.08;;;;;;;;;;5016649;28;20566;-42
2021/05/20 04:18:26;;;;;;;9.30;2.28;;;;;;;;;;5015467;28;20042;-43
2021/05/20 04:20:51;;;;;;;5.85;1.63;;;;;;;;;;5014214;28;20034;-41
2021/05/20 04:23:17;;;;;;;2.13;1.33;;;;;;;;;;5000953;28;20044;-41
2021/05/20 04:25:43;;;;;;;6.05;1.80;;;;;;;;;;5014576;28;20178;-42
2021/05/20 04:28:08;;;;;;;8.75;2.17;;;;;;;;;;5017426;28;20038;-42
2021/05/20 04:30:33;;;;;;;4.53;2.88;;;;;;;;;;5016950;28;20545;-42
2021/05/20 04:32:59;;;;;;;3.53;1.63;;;;;;;;;;5015016;28;20109;-42
2021/05/20 04:35:24;;;;;;;2.67;1.58;;;;;;;;;;5016894;28;20148;-42
2021/05/20 04:37:49;;;;;;;18.90;2.13;;;;;;;;;;4999926;28;20087;-42
2021/05/20 04:40:15;;;;;;;9.82;1.88;;;;;;;;;;5014520;28;20034;-42
2021/05/20 04:42:40;;;;;;;6.57;3.05;;;;;;;;;;5010639;28;20832;-41
2021/05/20 04:45:06;;;;;;;12.80;3.70;;;;;;;;;;5010375;28;20034;-43
2021/05/20 04:47:31;;;;;;;5.15;1.17;;;;;;;;;;5013317;28;20086;-43
2021/05/20 04:49:56;;;;;;;3.67;1.27;;;;;;;;;;5017498;28;20538;-43
2021/05/20 04:52:22;;;;;;;22.35;3.85;;;;;;;;;;5013579;28;20026;-44
2021/05/20 04:54:47;;;;;;;7.00;2.38;;;;;;;;;;5012255;28;20889;-41
2021/05/20 04:57:12;;;;;;;8.15;1.17;;;;;;;;;;5013278;28;20038;-43
2021/05/20 04:59:38;;;;;;;4.70;2.35;;;;;;;;;;5018118;28;20421;-42
2021/05/20 05:02:03;;;;;;;9.30;3.60;;;;;;;;;;5015367;28;20817;-42
2021/05/20 05:04:28;;;;;;;12.07;3.65;;;;;;;;;;5032627;28;20103;-41
2021/05/20 05:06:54;;;;;;;11.52;7.63;;;;;;;;;;5013514;28;20037;-42
2021/05/20 05:09:19;;;;;;;5.70;2.97;;;;;;;;;;5018807;28;20056;-42
2021/05/20 05:11:44;;;;;;;7.95;2.58;;;;;;;;;;5025867;28;20445;-43
2021/05/20 05:14:10;;;;;;;17.38;3.97;;;;;;;;;;5021793;28;20021;-43
2021/05/20 05:16:36;;;;;;;5.22;2.38;;;;;;;;;;5022899;28;20698;-42
2021/05/20 05:19:01;;;;;;;3.80;2.10;;;;;;;;;;5023995;28;20040;-43
2021/05/20 05:21:26;;;;;;;7.70;3.92;;;;;;;;;;5021745;28;20073;-46
2021/05/20 05:23:53;;;;;;;10.30;2.63;;;;;;;;;;5020266;28;20030;-46
2021/05/20 05:26:21;;;;;;;5.38;2.17;;;;;;;;;;5005434;28;20570;-46
2021/05/20 05:28:46;;;;;;;5.88;2.60;;;;;;;;;;5021727;28;20037;-45
2021/05/20 05:31:14;;;;;;;11.02;1.52;;;;;;;;;;5021207;28;20030;-45
2021/05/20 05:33:39;;;;;;;7.63;2.50;;;;;;;;;;5021412;28;20442;-47
2021/05/20 05:36:04;;;;;;;11.20;3.33;;;;;;;;;;5023443;28;20109;-46
2021/05/20 05:38:30;;;;;;;9.73;2.38;;;;;;;;;;5016296;28;20188;-48
2021/05/20 05:40:55;;;;;;;7.07;2.67;;;;;;;;;;5023225;28;20088;-49
2021/05/20 05:43:20;;;;;;;16.60;3.20;;;;;;;;;;5022652;28;20116;-45
2021/05/20 05:45:46;;;;;;;12.68;4.40;;;;;;;;;;5022099;28;20037;-47
2021/05/20 05:48:12;;;;;;;3.45;2.53;;;;;;;;;;5021408;28;20509;-46
2021/05/20 05:50:38;;;;;;;4.30;2.22;;;;;;;;;;5018867;28;20178;-45
2021/05/20 05:53:06;;;;;;;5.18;3.72;;;;;;;;;;5020841;28;20137;-47
2021/05/20 05:55:31;;;;;;;16.75;6.13;;;;;;;;;;5022229;28;20060;-48
2021/05/20 05:57:56;;;;;;;32.63;6.53;;;;;;;;;;5021380;28;20586;-47
2021/05/20 06:00:22;;;;;;;29.63;6.95;;;;;;;;;;5020992;28;20113;-45
2021/05/20 06:02:47;;;;;;;13.15;4.25;;;;;;;;;;5018621;28;20080;-45
2021/05/20 06:05:13;;;;;;;24.38;10.27;;;;;;;;;;5020782;28;20035;-47
2021/05/20 06:07:41;;;;;;;32.50;17.88;;;;;;;;;;5004715;28;20067;-45
2021/05/20 06:10:07;;;;;;;48.90;29.23;;;;;;;;;;5021373;28;20406;-45
2021/05/20 06:12:32;;;;;;;47.28;32.60;;;;;;;;;;5023039;28;20033;-46
2021/05/20 06:14:57;;;;;;;41.42;29.58;;;;;;;;;;5022931;28;20743;-46
2021/05/20 06:17:23;;;;;;;44.28;32.03;;;;;;;;;;5019290;28;20038;-47
2021/05/20 06:19:48;;;;;;;36.35;27.83;;;;;;;;;;5021397;28;20033;-47
2021/05/20 06:22:13;;;;;;;36.67;26.13;;;;;;;;;;5015347;28;20065;-44
2021/05/20 06:24:39;;;;;;;36.05;24.63;;;;;;;;;;5020322;28;20061;-45
2021/05/20 06:27:04;;;;;;;34.42;22.58;;;;;;;;;;5020432;28;20120;-47
2021/05/20 06:29:29;;;;;;;27.25;16.48;;;;;;;;;;5018450;28;20104;-45
2021/05/20 06:31:54;;;;;;;25.80;14.63;;;;;;;;;;5014418;28;20032;-44
2021/05/20 06:34:20;;;;;;;23.15;16.92;;;;;;;;;;5017950;28;20559;-46
2021/05/20 06:36:46;;;;;;;17.90;15.88;;;;;;;;;;5019425;28;20107;-47
2021/05/20 06:39:11;;;;;;;27.38;14.38;;;;;;;;;;5010672;28;20056;-44
2021/05/20 06:41:37;;;;;;;19.80;12.43;;;;;;;;;;5018321;28;20058;-46
2021/05/20 06:44:02;;;;;;;18.17;9.82;;;;;;;;;;5021408;28;20038;-46
2021/05/20 06:46:27;;;;;;;33.28;10.90;;;;;;;;;;5012653;28;20379;-45
2021/05/20 06:48:54;;;;;;;19.00;9.35;;;;;;;;;;5021334;28;20495;-46
2021/05/20 06:51:19;;;;;;;12.70;9.75;;;;;;;;;;5021868;28;20033;-46
2021/05/20 06:53:47;;;;;;;22.70;10.88;;;;;;;;;;5022358;28;20033;-44
2021/05/20 06:56:17;;;;;;;12.48;6.90;;;;;;;;;;5017936;28;20079;-44
2021/05/20 07:01:26;;;;;;;16.35;5.20;;;;;;;;;;5021377;28;20552;-45
2021/05/20 07:03:51;;;;;;;12.85;3.45;;;;;;;;;;5018451;28;20037;-47
2021/05/20 07:06:17;;;;;;;8.52;3.10;;;;;;;;;;5016542;28;20087;-45
2021/05/20 07:08:44;;;;;;;15.75;4.60;;;;;;;;;;5015662;28;20034;-49
2021/05/20 07:11:10;;;;;;;11.60;4.85;;;;;;;;;;5016198;28;20063;-43
2021/05/20 07:13:35;;;;;;;6.90;2.47;;;;;;;;;;5020102;28;20065;-46
2021/05/20 07:16:00;;;;;;;10.25;4.82;;;;;;;;;;5014386;28;20121;-48
2021/05/20 07:18:26;;;;;;;66.40;9.43;;;;;;;;;;5019938;28;20037;-45
2021/05/20 07:20:51;;;;;;;11.30;4.13;;;;;;;;;;5017588;28;20036;-46
2021/05/20 07:23:18;;;;;;;6.40;3.20;;;;;;;;;;5019475;28;20045;-45
2021/05/20 07:25:44;;;;;;;19.23;5.28;;;;;;;;;;5014419;28;20050;-52
2021/05/20 07:28:10;;;;;;;8.13;4.53;;;;;;;;;;5014191;28;20154;-46
2021/05/20 07:30:35;;;;;;;6.70;3.03;;;;;;;;;;5014945;28;20439;-46
2021/05/20 07:33:01;;;;;;;16.05;3.75;;;;;;;;;;5019557;28;20105;-47
2021/05/20 07:35:27;;;;;;;11.32;4.00;;;;;;;;;;5011502;28;20771;-47
2021/05/20 07:37:52;;;;;;;6.13;3.28;;;;;;;;;;5018317;28;20033;-48
2021/05/20 07:40:18;;;;;;;12.20;3.63;;;;;;;;;;5017379;28;20041;-48
2021/05/20 07:42:44;;;;;;;8.57;3.17;;;;;;;;;;5016081;28;20037;-45
2021/05/20 07:45:11;;;;;;;10.32;3.13;;;;;;;;;;5018490;28;20052;-50
2021/05/20 07:47:37;;;;;;;14.60;2.78;;;;;;;;;;5016981;28;20147;-45
2021/05/20 07:50:04;;;;;;;6.57;2.60;;;;;;;;;;5019396;28;20045;-49
2021/05/20 07:52:30;;;;;;;7.47;3.53;;;;;;;;;;5018559;28;20412;-47
2021/05/20 07:54:56;;;;;;;5.07;2.53;;;;;;;;;;5019366;28;20558;-48
2021/05/20 07:57:21;;;;;;;21.52;2.60;;;;;;;;;;5013477;28;20037;-49
2021/05/20 07:59:47;;;;;;;6.93;4.10;;;;;;;;;;5015810;28;20042;-48
2021/05/20 08:04:47;;;;;;;8.88;4.97;;;;;;;;;;5017136;28;20053;-47
2021/05/20 08:09:48;;;;;;;4.95;1.63;;;;;;;;;;5017694;28;20018;-46
2021/05/20 08:12:16;;;;;;;6.43;1.52;;;;;;;;;;5019589;28;20112;-50
2021/05/20 08:14:41;;;;;;;3.33;1.75;;;;;;;;;;5017651;28;20060;-47
2021/05/20 08:17:07;;;;;;;2.20;0.90;;;;;;;;;;5012780;28;20037;-50
2021/05/20 08:19:33;;;;;;;7.80;1.98;;;;;;;;;;5018819;28;20041;-49
2021/05/20 08:21:58;;;;;;;1.98;1.50;;;;;;;;;;5016901;28;20030;-47
2021/05/20 08:24:23;;;;;;;12.63;2.58;;;;;;;;;;5015768;28;20038;-48
2021/05/20 08:26:49;;;;;;;10.57;2.10;;;;;;;;;;5016040;28;20518;-46
2021/05/20 08:29:14;;;;;;;5.55;1.45;;;;;;;;;;5011002;28;20034;-46
2021/05/20 08:31:39;;;;;;;13.18;3.33;;;;;;;;;;5014518;28;20038;-50
2021/05/20 08:34:05;;;;;;;4.55;1.65;;;;;;;;;;5017835;28;20505;-45
2021/05/20 08:36:32;;;;;;;4.05;1.35;;;;;;;;;;5015677;28;20395;-48
2021/05/20 08:38:57;;;;;;;3.88;1.95;;;;;;;;;;5014623;28;20930;-47
2021/05/20 08:41:22;;;;;;;7.82;2.45;;;;;;;;;;5015759;28;20045;-49
2021/05/20 08:43:48;;;;;;;7.57;2.28;;;;;;;;;;5016849;28;20428;-48
2021/05/20 08:46:20;;;;;;;5.82;2.25;;;;;;;;;;5017154;28;20057;-45
2021/05/20 08:48:46;;;;;;;3.08;1.83;;;;;;;;;;5019817;28;20453;-47
2021/05/20 08:51:18;;;;;;;6.43;2.42;;;;;;;;;;5013318;28;20030;-47
2021/05/20 08:53:47;;;;;;;471.02;111.03;;;;;;;;;;5014673;28;20022;-49
2021/05/20 08:56:13;;;;;;;193.43;36.90;;;;;;;;;;5012302;28;20087;-45
2021/05/20 08:58:38;;;;;;;60.85;13.40;;;;;;;;;;5017652;28;20030;-48
2021/05/20 09:01:04;;;;;;;50.35;10.55;;;;;;;;;;5015885;28;20623;-51
2021/05/20 09:03:32;;;;;;;37.47;7.63;;;;;;;;;;5012425;28;20621;-48
2021/05/20 09:06:04;;;;;;;61.40;7.85;;;;;;;;;;5012341;28;20050;-48
2021/05/20 09:08:32;;;;;;;41.50;10.48;;;;;;;;;;5011554;28;20052;-50
2021/05/20 09:10:58;;;;;;;7.97;4.15;;;;;;;;;;5017016;28;20033;-47
2021/05/20 09:13:23;;;;;;;221.88;49.90;;;;;;;;;;5013332;28;20040;-46
2021/05/20 09:15:52;;;;;;;59.83;9.02;;;;;;;;;;5010599;28;20046;-45
2021/05/20 09:18:18;;;;;;;9.68;3.28;;;;;;;;;;5009531;28;20033;-51
2021/05/20 09:20:45;;;;;;;7.32;2.20;;;;;;;;;;5010345;28;20034;-46
2021/05/20 09:23:12;;;;;;;6.47;1.63;;;;;;;;;;5013491;28;20025;-47
2021/05/20 09:25:38;;;;;;;3.83;1.90;;;;;;;;;;5012853;28;20063;-46
2021/05/20 09:28:08;;;;;;;4.45;1.58;;;;;;;;;;5015879;28;20084;-49
2021/05/20 09:30:37;;;;;;;9.45;2.55;;;;;;;;;;5011225;28;20099;-49
2021/05/20 09:33:15;;;;;;;2.20;1.27;;;;;;;;;;5014095;28;20034;-44
2021/05/20 09:35:44;;;;;;;3.38;2.15;;;;;;;;;;5011428;28;20034;-48
2021/05/20 09:38:11;;;;;;;6.50;1.27;;;;;;;;;;5011398;28;20022;-46
2021/05/20 09:40:44;;;;;;;12.35;3.03;;;;;;;;;;5010535;28;20037;-48
2021/05/20 09:43:30;;;;;;;13.68;2.50;;;;;;;;;;5014086;28;20038;-48
2021/05/20 09:45:57;;;;;;;4.80;2.40;;;;;;;;;;5009581;28;20034;-45
2021/05/20 09:48:26;;;;;;;4.63;1.98;;;;;;;;;;5010015;28;20044;-47
2021/05/20 09:50:52;;;;;;;16.42;1.33;;;;;;;;;;5010721;28;20040;-46
2021/05/20 09:53:19;;;;;;;3.78;0.85;;;;;;;;;;5013467;28;20580;-48
2021/05/20 09:55:54;;;;;;;5.47;2.22;;;;;;;;;;5015417;28;20026;-47
2021/05/20 09:58:23;;;;;;;5.60;5.05;;;;;;;;;;5017236;28;20413;-50
2021/05/20 10:00:49;;;;;;;7.10;1.95;;;;;;;;;;5002036;28;20514;-47
2021/05/20 10:03:20;;;;;;;10.50;1.45;;;;;;;;;;5016215;28;20042;-58
2021/05/20 10:05:47;;;;;;;8.02;2.78;;;;;;;;;;5018262;28;20080;-48
2021/05/20 10:08:16;;;;;;;4.88;2.53;;;;;;;;;;5018136;28;20033;-46
2021/05/20 10:10:46;;;;;;;2.35;1.88;;;;;;;;;;5016561;28;20084;-49
2021/05/20 10:13:13;;;;;;;4.15;2.15;;;;;;;;;;5016301;28;20080;-46
2021/05/20 10:15:40;;;;;;;7.40;3.22;;;;;;;;;;5015184;28;20099;-46
2021/05/20 10:18:09;;;;;;;7.53;1.90;;;;;;;;;;5016730;28;20048;-46
2021/05/20 10:20:35;;;;;;;3.83;1.25;;;;;;;;;;5014092;28;20091;-48
2021/05/20 10:23:01;;;;;;;3.92;2.08;;;;;;;;;;5016655;28;20025;-48
2021/05/20 10:25:27;;;;;;;6.75;1.75;;;;;;;;;;5017777;28;20185;-47
2021/05/20 10:27:52;;;;;;;4.15;1.13;;;;;;;;;;5015231;28;20046;-56
2021/05/20 10:30:18;;;;;;;3.50;2.28;;;;;;;;;;5016895;28;20112;-56
2021/05/20 10:32:45;;;;;;;4.28;1.42;;;;;;;;;;5019266;28;20040;-57
2021/05/20 10:35:12;;;;;;;9.27;2.78;;;;;;;;;;5015264;28;20042;-58
2021/05/20 10:37:39;;;;;;;5.93;1.38;;;;;;;;;;5016434;28;20518;-57
2021/05/20 10:40:06;;;;;;;5.05;1.13;;;;;;;;;;5014402;28;20113;-58
2021/05/20 10:42:38;;;;;;;0.50;0.40;;;;;;;;;;5018207;28;20045;-57
2021/05/20 10:45:13;;;;;;;7.38;2.25;;;;;;;;;;5017420;28;20565;-48
2021/05/20 10:47:58;;;;;;;3.85;1.10;;;;;;;;;;5016661;28;20061;-47
2021/05/20 10:50:44;;;;;;;5.10;1.63;;;;;;;;;;5017214;28;20449;-47
2021/05/20 10:53:09;;;;;;;2.40;1.13;;;;;;;;;;5019651;28;20087;-46
2021/05/20 10:55:36;;;;;;;4.35;1.48;;;;;;;;;;5016056;28;20414;-49
2021/05/20 10:58:01;;;;;;;1.55;1.08;;;;;;;;;;5018047;28;20096;-55
2021/05/20 11:00:36;;;;;;;4.75;2.85;;;;;;;;;;5016778;28;20037;-53
2021/05/20 11:03:02;;;;;;;8.70;1.50;;;;;;;;;;5017334;28;20113;-57
2021/05/20 11:05:48;;;;;;;13.20;3.13;;;;;;;;;;5019437;28;20772;-55
2021/05/20 11:08:25;;;;;;;6.68;1.33;;;;;;;;;;5004932;28;20030;-56
2021/05/20 11:10:50;;;;;;;27.58;3.65;;;;;;;;;;5015848;28;20029;-54
2021/05/20 11:13:34;;;;;;;3.20;1.48;;;;;;;;;;5013961;28;20084;-56
2021/05/20 11:16:12;;;;;;;3.50;1.63;;;;;;;;;;5015024;28;20042;-55
2021/05/20 11:18:38;;;;;;;5.13;1.17;;;;;;;;;;5015536;28;20568;-55
2021/05/20 11:21:03;;;;;;;8.85;1.52;;;;;;;;;;5016573;28;20037;-55
2021/05/20 11:23:30;;;;;;;8.40;1.00;;;;;;;;;;5017273;28;20436;-56
2021/05/20 11:26:05;;;;;;;3.95;1.55;;;;;;;;;;5015465;28;20759;-57
2021/05/20 11:28:37;;;;;;;2.08;1.00;;;;;;;;;;5016118;28;20110;-56
2021/05/20 11:31:03;;;;;;;1.80;0.73;;;;;;;;;;5016352;28;20054;-55
2021/05/20 11:33:33;;;;;;;5.28;0.93;;;;;;;;;;5018470;28;20513;-54
2021/05/20 11:38:27;;;;;;;1.52;0.30;;;;;;;;;;5015038;28;19964;-56
2021/05/20 11:40:53;;;;;;;5.13;1.00;;;;;;;;;;5017940;28;20037;-54
2021/05/20 11:43:28;;;;;;;5.88;1.30;;;;;;;;;;5016157;28;20037;-56
2021/05/20 11:45:53;;;;;;;19.13;3.28;;;;;;;;;;5020449;28;20049;-54
2021/05/20 11:48:19;;;;;;;2.67;1.45;;;;;;;;;;5015424;28;20402;-54
2021/05/20 11:50:51;;;;;;;2.70;1.50;;;;;;;;;;5029743;28;20437;-53
2021/05/20 11:53:16;;;;;;;3.97;1.88;;;;;;;;;;5017490;28;20112;-55
2021/05/20 11:55:43;;;;;;;3.47;1.52;;;;;;;;;;5017729;28;20026;-54
2021/05/20 11:58:08;;;;;;;2.78;1.33;;;;;;;;;;5015858;28;20117;-56
2021/05/20 12:00:33;;;;;;;2.78;1.00;;;;;;;;;;5018577;28;20419;-56
2021/05/20 12:02:59;;;;;;;2.40;1.10;;;;;;;;;;5020808;28;20684;-57
2021/05/20 12:05:24;;;;;;;1.33;0.85;;;;;;;;;;5017266;28;20033;-53
2021/05/20 12:07:50;;;;;;;2.58;1.27;;;;;;;;;;5016727;28;20037;-54
2021/05/20 12:10:16;;;;;;;2.58;1.17;;;;;;;;;;5016110;28;20044;-54
2021/05/20 12:12:43;;;;;;;6.13;0.52;;;;;;;;;;5016238;28;20037;-56
2021/05/20 12:15:13;;;;;;;3.58;1.00;;;;;;;;;;5015768;28;20038;-46
2021/05/20 12:17:38;;;;;;;3.65;0.82;;;;;;;;;;5018398;28;20041;-46
2021/05/20 12:20:04;;;;;;;2.28;1.00;;;;;;;;;;5015370;28;20084;-49
2021/05/20 12:22:30;;;;;;;2.60;0.80;;;;;;;;;;5015439;28;20703;-47
2021/05/20 12:25:00;;;;;;;1.67;0.43;;;;;;;;;;5014217;28;20056;-47
2021/05/20 12:27:29;;;;;;;5.50;1.17;;;;;;;;;;5011829;28;20064;-49
2021/05/20 12:29:58;;;;;;;7.22;0.88;;;;;;;;;;5017954;28;20854;-46
2021/05/20 12:32:24;;;;;;;3.22;1.08;;;;;;;;;;5017381;28;20042;-48
2021/05/20 12:35:08;;;;;;;11.85;1.50;;;;;;;;;;5016779;28;20089;-49
2021/05/20 12:37:41;;;;;;;1.55;0.98;;;;;;;;;;5016711;28;20505;-48
2021/05/20 12:40:10;;;;;;;3.33;1.70;;;;;;;;;;5019792;28;20041;-50
2021/05/20 12:42:36;;;;;;;2.00;0.98;;;;;;;;;;5015372;28;20056;-47
2021/05/20 12:45:02;;;;;;;1.02;0.40;;;;;;;;;;5016246;28;20143;-47
2021/05/20 12:47:27;;;;;;;10.27;1.65;;;;;;;;;;5016112;28;20057;-48
2021/05/20 12:49:56;;;;;;;8.00;2.10;;;;;;;;;;5015283;28;20073;-48
2021/05/20 12:52:21;;;;;;;1.95;0.65;;;;;;;;;;5012094;28;20107;-49
2021/05/20 12:55:07;;;;;;;1.65;0.98;;;;;;;;;;5017836;28;20033;-48
2021/05/20 12:57:52;;;;;;;12.77;0.75;;;;;;;;;;5014202;28;20040;-46
2021/05/20 13:00:17;;;;;;;2.85;0.65;;;;;;;;;;5015125;28;20064;-49
2021/05/20 13:02:42;;;;;;;8.35;2.25;;;;;;;;;;5017743;28;20085;-47
2021/05/20 13:05:08;;;;;;;1.83;0.70;;;;;;;;;;5014224;28;20120;-47
2021/05/20 13:07:33;;;;;;;5.43;0.75;;;;;;;;;;5015360;28;20041;-48
2021/05/20 13:10:02;;;;;;;9.82;1.50;;;;;;;;;;5013606;28;20090;-45
2021/05/20 13:12:39;;;;;;;2.40;1.00;;;;;;;;;;5014948;28;20026;-50
2021/05/20 13:23:00;;;;;;;0.98;0.68;;;;;;;;;;5014754;28;20026;-48
2021/05/20 13:25:26;;;;;;;7.43;1.23;;;;;;;;;;5015439;28;20049;-49
2021/05/20 13:27:52;;;;;;;1.05;0.30;;;;;;;;;;5016242;28;20113;-50
2021/05/20 13:30:31;;;;;;;3.63;1.45;;;;;;;;;;5014121;28;20036;-47
2021/05/20 13:33:00;;;;;;;2.00;1.00;;;;;;;;;;5019251;28;20037;-46
2021/05/20 13:35:26;;;;;;;0.73;0.50;;;;;;;;;;5017764;28;20080;-48
2021/05/20 13:37:54;;;;;;;0.70;0.40;;;;;;;;;;5019260;28;20644;-45
2021/05/20 13:40:24;;;;;;;0.70;0.50;;;;;;;;;;5016669;28;20037;-47
2021/05/20 13:42:50;;;;;;;3.38;1.20;;;;;;;;;;5017448;28;20056;-49
2021/05/20 13:45:16;;;;;;;15.50;3.60;;;;;;;;;;5016981;28;20076;-50
2021/05/20 13:47:41;;;;;;;15.95;3.08;;;;;;;;;;5019701;28;20057;-46
2021/05/20 13:50:07;;;;;;;2.10;0.82;;;;;;;;;;5020568;28;20502;-49
2021/05/20 13:52:37;;;;;;;2.40;1.15;;;;;;;;;;5022682;28;20492;-49
2021/05/20 13:55:03;;;;;;;2.75;1.73;;;;;;;;;;5013237;28;20081;-47
2021/05/20 13:57:28;;;;;;;3.70;1.02;;;;;;;;;;5017891;28;20451;-46
2021/05/20 13:59:53;;;;;;;0.63;0.40;;;;;;;;;;5018390;28;20058;-48
2021/05/20 14:02:22;;;;;;;0.40;0.30;;;;;;;;;;5019249;28;20022;-47
2021/05/20 14:04:48;;;;;;;3.88;1.48;;;;;;;;;;5019405;28;20044;-47
2021/05/20 14:07:15;;;;;;;0.52;0.32;;;;;;;;;;5020493;28;20029;-48
2021/05/20 14:09:41;;;;;;;1.15;0.35;;;;;;;;;;5020168;28;20034;-46
2021/05/20 14:12:06;;;;;;;6.43;2.35;;;;;;;;;;5016708;28;20022;-45
2021/05/20 14:14:32;;;;;;;5.28;1.60;;;;;;;;;;5018706;28;20036;-49
2021/05/20 14:16:58;;;;;;;4.60;1.30;;;;;;;;;;5019065;28;20036;-46
2021/05/20 14:19:24;;;;;;;6.97;0.47;;;;;;;;;;5016029;28;20049;-46
2021/05/20 14:21:49;;;;;;;1.63;0.98;;;;;;;;;;5018632;28;20103;-45
2021/05/20 14:24:16;;;;;;;0.77;0.47;;;;;;;;;;5015965;28;20037;-48
2021/05/20 14:26:41;;;;;;;0.38;0.28;;;;;;;;;;5017531;28;20049;-48
2021/05/20 14:29:07;;;;;;;1.65;1.20;;;;;;;;;;5018884;28;20034;-49
2021/05/20 14:31:32;;;;;;;0.40;0.32;;;;;;;;;;5016865;28;20042;-51
2021/05/20 14:33:59;;;;;;;2.17;0.50;;;;;;;;;;5015562;28;20049;-47
2021/05/20 14:36:25;;;;;;;19.02;2.22;;;;;;;;;;5020622;28;20033;-48
2021/05/20 14:38:50;;;;;;;2.42;1.27;;;;;;;;;;5019723;28;20043;-48
2021/05/20 14:41:15;;;;;;;2.78;0.77;;;;;;;;;;5016092;28;20395;-49
2021/05/20 14:43:41;;;;;;;2.70;1.13;;;;;;;;;;5019044;28;20057;-47
2021/05/20 14:46:06;;;;;;;2.80;1.02;;;;;;;;;;5016568;28;20489;-47
2021/05/20 14:48:33;;;;;;;2.95;1.45;;;;;;;;;;5018929;28;20380;-50
2021/05/20 14:51:07;;;;;;;0.43;0.30;;;;;;;;;;5015620;28;20120;-47
2021/05/20 14:53:33;;;;;;;2.30;0.60;;;;;;;;;;5019027;28;20057;-47